createdAt,value
2023-03-27T00:00:13.970Z,80.46
2023-03-27T00:02:31.735Z,80.85
2023-03-27T00:04:49.193Z,81.72
2023-03-27T00:07:06.448Z,81.36
2023-03-27T00:09:24.786Z,81.76
2023-03-27T00:11:42.169Z,81.91
2023-03-27T00:14:00.240Z,81.76
2023-03-27T00:16:17.613Z,81.82
2023-03-27T00:18:35.636Z,81.04
2023-03-27T00:20:53.072Z,81.31
2023-03-27T00:23:10.436Z,80.70
2023-03-27T00:25:27.513Z,80.72
2023-03-27T00:27:44.797Z,80.84
2023-03-27T00:30:01.783Z,80.77
2023-03-27T00:32:18.717Z,80.97
2023-03-27T00:34:35.770Z,80.74
2023-03-27T00:36:52.811Z,81.08
2023-03-27T00:39:10.195Z,80.95
2023-03-27T00:41:28.579Z,81.48
2023-03-27T00:43:45.814Z,80.81
2023-03-27T00:46:04.074Z,80.36
2023-03-27T00:48:21.444Z,80.03
2023-03-27T00:50:38.405Z,79.78
2023-03-27T00:52:56.618Z,79.25
2023-03-27T00:55:13.672Z,79.42
2023-03-27T00:57:32.693Z,79.86
2023-03-27T00:59:49.726Z,78.56
2023-03-27T01:02:06.726Z,78.58
2023-03-27T01:04:23.742Z,77.23
2023-03-27T01:06:40.761Z,76.75
2023-03-27T01:08:57.826Z,76.10
2023-03-27T01:11:15.146Z,75.64
2023-03-27T01:13:33.154Z,76.05
2023-03-27T01:15:50.272Z,75.52
2023-03-27T01:18:07.622Z,74.85
2023-03-27T01:20:24.749Z,74.51
2023-03-27T01:22:41.768Z,74.57
2023-03-27T01:24:59.071Z,74.14
2023-03-27T01:27:16.318Z,75.18
2023-03-27T01:29:33.391Z,74.01
2023-03-27T01:31:50.571Z,72.73
2023-03-27T01:34:08.648Z,72.32
2023-03-27T01:36:25.878Z,71.58
2023-03-27T01:38:43.181Z,70.36
2023-03-27T01:41:00.433Z,70.42
2023-03-27T01:43:17.416Z,72.01
2023-03-27T01:45:35.672Z,70.98
2023-03-27T01:47:52.960Z,71.45
2023-03-27T01:50:10.245Z,72.02
2023-03-27T01:52:27.368Z,73.00
2023-03-27T01:54:44.405Z,73.41
2023-03-27T01:57:01.790Z,71.07
2023-03-27T01:59:19.048Z,71.29
2023-03-27T02:01:36.041Z,72.38
2023-03-27T02:03:53.385Z,71.18
2023-03-27T02:06:11.641Z,75.77
2023-03-27T02:08:28.543Z,75.14
2023-03-27T02:10:46.697Z,74.91
2023-03-27T02:13:03.748Z,74.70
2023-03-27T02:15:24.132Z,74.23
2023-03-27T02:17:42.445Z,75.00
2023-03-27T02:19:59.874Z,73.55
2023-03-27T02:22:17.125Z,74.84
2023-03-27T02:24:34.385Z,74.16
2023-03-27T02:26:52.337Z,75.32
2023-03-27T02:29:09.347Z,76.11
2023-03-27T02:31:31.680Z,75.58
2023-03-27T02:33:51.295Z,73.91
2023-03-27T02:36:10.590Z,76.39
2023-03-27T02:38:28.569Z,75.98
2023-03-27T02:40:45.794Z,73.77
2023-03-27T02:43:03.798Z,76.00
2023-03-27T02:45:20.704Z,75.29
2023-03-27T02:47:38.085Z,75.51
2023-03-27T02:49:55.381Z,75.39
2023-03-27T02:52:12.612Z,74.35
2023-03-27T02:54:29.587Z,76.63
2023-03-27T02:56:46.828Z,75.24
2023-03-27T02:59:04.817Z,73.45
2023-03-27T03:01:23.143Z,76.02
2023-03-27T03:03:40.272Z,76.19
2023-03-27T03:05:57.346Z,76.53
2023-03-27T03:08:15.343Z,75.37
2023-03-27T03:10:32.393Z,74.35
2023-03-27T03:12:49.453Z,74.85
2023-03-27T03:15:06.745Z,75.04
2023-03-27T03:17:23.943Z,77.94
2023-03-27T03:19:40.866Z,74.90
2023-03-27T03:21:58.156Z,75.95
2023-03-27T03:24:15.296Z,74.34
2023-03-27T03:26:32.517Z,75.99
2023-03-27T03:29:00.487Z,74.36
2023-03-27T03:31:18.526Z,76.24
2023-03-27T03:33:35.582Z,75.76
2023-03-27T03:35:53.659Z,78.43
2023-03-27T03:38:11.001Z,75.72
2023-03-27T03:40:28.082Z,76.26
2023-03-27T03:42:45.365Z,77.58
2023-03-27T03:45:02.643Z,78.00
2023-03-27T03:47:19.639Z,77.99
2023-03-27T03:49:36.679Z,78.04
2023-03-27T03:52:03.883Z,77.08
2023-03-27T03:54:21.772Z,76.17
2023-03-27T03:56:39.061Z,76.76
2023-03-27T03:58:56.139Z,77.17
2023-03-27T04:01:13.201Z,77.35
2023-03-27T04:03:30.189Z,78.74
2023-03-27T04:05:48.242Z,76.70
2023-03-27T04:08:05.494Z,76.24
2023-03-27T04:10:22.564Z,76.52
2023-03-27T04:12:39.819Z,75.30
2023-03-27T04:14:57.426Z,74.85
2023-03-27T04:17:14.281Z,74.05
2023-03-27T04:19:31.317Z,75.96
2023-03-27T04:21:49.335Z,75.08
2023-03-27T04:24:06.313Z,76.73
2023-03-27T04:26:23.224Z,75.89
2023-03-27T04:28:40.238Z,75.84
2023-03-27T04:30:57.390Z,76.69
2023-03-27T04:33:14.466Z,76.67
2023-03-27T04:35:31.501Z,77.24
2023-03-27T04:37:49.724Z,77.57
2023-03-27T04:40:06.913Z,78.71
2023-03-27T04:42:24.168Z,78.24
2023-03-27T04:44:42.432Z,78.58
2023-03-27T04:46:59.500Z,78.17
2023-03-27T04:49:16.578Z,78.33
2023-03-27T04:51:33.760Z,78.61
2023-03-27T04:53:51.963Z,78.93
2023-03-27T04:56:10.189Z,79.47
2023-03-27T04:58:27.220Z,80.11
2023-03-27T05:00:44.271Z,79.70
2023-03-27T05:03:01.254Z,79.10
2023-03-27T05:05:18.245Z,80.06
2023-03-27T05:07:35.527Z,79.67
2023-03-27T05:09:52.550Z,80.44
2023-03-27T05:12:09.389Z,80.42
2023-03-27T05:14:26.325Z,80.88
2023-03-27T05:16:43.364Z,80.08
2023-03-27T05:19:00.340Z,80.96
2023-03-27T05:21:17.226Z,80.85
2023-03-27T05:23:34.298Z,80.58
2023-03-27T05:26:00.748Z,81.41
2023-03-27T05:28:18.048Z,80.15
2023-03-27T05:30:35.062Z,80.82
2023-03-27T05:32:53.154Z,81.51
2023-03-27T05:35:10.447Z,81.74
2023-03-27T05:37:27.622Z,81.47
2023-03-27T05:39:44.835Z,81.59
2023-03-27T05:42:02.138Z,82.40
2023-03-27T05:44:19.196Z,82.56
2023-03-27T05:46:36.093Z,82.50
2023-03-27T05:48:53.120Z,82.80
2023-03-27T05:51:10.178Z,83.06
2023-03-27T05:53:29.127Z,82.52
2023-03-27T05:55:46.165Z,83.24
2023-03-27T05:58:03.453Z,82.68
2023-03-27T06:00:20.322Z,82.78
2023-03-27T06:02:38.307Z,83.52
2023-03-27T06:04:56.489Z,83.27
2023-03-27T06:07:13.441Z,83.05
2023-03-27T06:09:30.683Z,83.24
2023-03-27T06:11:47.622Z,82.88
2023-03-27T06:14:04.968Z,83.02
2023-03-27T06:16:22.982Z,84.15
2023-03-27T06:18:39.984Z,83.27
2023-03-27T06:20:58.369Z,84.14
2023-03-27T06:23:16.466Z,84.49
2023-03-27T06:25:33.684Z,84.64
2023-03-27T06:27:50.787Z,84.60
2023-03-27T06:30:08.040Z,84.13
2023-03-27T06:32:27.148Z,83.60
2023-03-27T06:34:44.490Z,82.69
2023-03-27T06:37:01.809Z,82.76
2023-03-27T06:39:19.009Z,83.19
2023-03-27T06:41:36.235Z,81.72
2023-03-27T06:43:53.255Z,81.89
2023-03-27T06:46:10.349Z,82.54
2023-03-27T06:48:27.694Z,81.62
2023-03-27T06:50:44.626Z,81.01
2023-03-27T06:53:03.075Z,81.48
2023-03-27T06:55:21.560Z,82.25
2023-03-27T06:57:38.585Z,81.17
2023-03-27T06:59:55.635Z,80.38
2023-03-27T07:02:12.929Z,80.07
2023-03-27T07:04:30.051Z,80.81
2023-03-27T07:06:47.028Z,79.73
2023-03-27T07:09:04.253Z,80.16
2023-03-27T07:11:21.555Z,79.80
2023-03-27T07:13:38.598Z,79.98
2023-03-27T07:15:55.740Z,79.87
2023-03-27T07:18:13.045Z,80.09
2023-03-27T07:20:31.056Z,80.42
2023-03-27T07:22:48.052Z,78.19
2023-03-27T07:25:05.040Z,76.48
2023-03-27T07:27:21.946Z,75.93
2023-03-27T07:29:38.955Z,75.00
2023-03-27T07:31:59.578Z,73.29
2023-03-27T07:34:19.079Z,73.15
2023-03-27T07:36:36.053Z,73.78
2023-03-27T07:38:52.954Z,74.66
2023-03-27T07:41:10.246Z,73.03
2023-03-27T07:43:27.187Z,72.71
2023-03-27T07:45:44.277Z,72.26
2023-03-27T07:48:01.368Z,72.42
2023-03-27T07:50:19.806Z,71.65
2023-03-27T07:52:36.822Z,70.58
2023-03-27T07:54:53.717Z,71.10
2023-03-27T07:57:10.784Z,70.36
2023-03-27T07:59:27.891Z,70.33
2023-03-27T08:01:44.901Z,68.45
2023-03-27T08:04:02.072Z,67.79
2023-03-27T08:06:19.526Z,67.30
2023-03-27T08:08:36.503Z,67.74
2023-03-27T08:10:54.487Z,66.50
2023-03-27T08:13:11.889Z,66.05
2023-03-27T08:15:29.797Z,66.14
2023-03-27T08:17:47.156Z,66.43
2023-03-27T08:20:04.492Z,65.79
2023-03-27T08:22:21.796Z,64.83
2023-03-27T08:24:38.751Z,64.90
2023-03-27T08:26:55.730Z,65.30
2023-03-27T08:29:12.779Z,65.71
2023-03-27T08:31:29.877Z,65.47
2023-03-27T08:33:46.906Z,65.74
2023-03-27T08:36:04.198Z,64.30
2023-03-27T08:38:27.021Z,63.17
2023-03-27T08:40:44.507Z,62.84
2023-03-27T08:43:02.505Z,62.73
2023-03-27T08:45:19.491Z,62.73
2023-03-27T08:47:37.757Z,63.64
2023-03-27T08:49:54.763Z,63.13
2023-03-27T08:52:11.831Z,63.07
2023-03-27T08:54:29.164Z,62.46
2023-03-27T08:56:46.109Z,61.91
2023-03-27T08:59:03.411Z,60.80
2023-03-27T09:01:20.526Z,60.22
2023-03-27T09:03:38.750Z,60.77
2023-03-27T09:05:57.069Z,59.40
2023-03-27T09:08:15.267Z,60.53
2023-03-27T09:10:32.510Z,59.81
2023-03-27T09:12:49.918Z,59.71
2023-03-27T09:15:06.967Z,60.07
2023-03-27T09:17:23.985Z,59.62
2023-03-27T09:19:40.957Z,57.78
2023-03-27T09:21:58.279Z,59.53
2023-03-27T09:24:15.302Z,58.95
2023-03-27T09:26:32.278Z,60.04
2023-03-27T09:28:49.244Z,60.37
2023-03-27T09:31:07.212Z,60.55
2023-03-27T09:33:24.631Z,59.59
2023-03-27T09:35:41.711Z,60.71
2023-03-27T09:37:58.943Z,62.10
2023-03-27T09:40:16.079Z,62.98
2023-03-27T09:42:33.183Z,64.52
2023-03-27T09:44:51.528Z,66.27
2023-03-27T09:47:08.627Z,68.88
2023-03-27T09:49:26.662Z,71.11
2023-03-27T09:51:44.930Z,72.91
2023-03-27T09:54:01.995Z,74.76
2023-03-27T09:56:18.923Z,74.79
2023-03-27T09:58:36.839Z,75.58
2023-03-27T10:00:54.226Z,75.87
2023-03-27T10:03:11.594Z,77.50
2023-03-27T10:05:29.893Z,74.11
2023-03-27T10:07:46.956Z,73.98
2023-03-27T10:10:03.923Z,72.30
2023-03-27T10:12:20.986Z,72.83
2023-03-27T10:14:38.230Z,72.13
2023-03-27T10:16:56.380Z,70.62
2023-03-27T10:19:13.481Z,71.12
2023-03-27T10:21:30.461Z,70.12
2023-03-27T10:23:47.511Z,68.46
2023-03-27T10:26:04.887Z,63.83
2023-03-27T10:28:22.198Z,64.69
2023-03-27T10:30:40.252Z,61.88
2023-03-27T10:32:57.590Z,60.79
2023-03-27T10:35:14.667Z,58.79
2023-03-27T10:37:31.722Z,59.15
2023-03-27T10:39:48.789Z,59.18
2023-03-27T10:42:06.768Z,61.00
2023-03-27T10:44:24.015Z,59.04
2023-03-27T10:46:41.074Z,55.26
2023-03-27T10:48:58.073Z,57.36
2023-03-27T10:51:16.011Z,56.15
2023-03-27T10:53:33.239Z,56.08
2023-03-27T10:55:50.579Z,53.22
2023-03-27T10:58:07.811Z,51.81
2023-03-27T11:00:25.045Z,51.51
2023-03-27T11:02:42.323Z,51.62
2023-03-27T11:04:59.644Z,53.06
2023-03-27T11:07:16.854Z,52.55
2023-03-27T11:09:35.193Z,50.78
2023-03-27T11:11:52.465Z,51.11
2023-03-27T11:14:09.482Z,52.96
2023-03-27T11:16:26.756Z,54.42
2023-03-27T11:18:44.658Z,54.49
2023-03-27T11:21:01.969Z,53.25
2023-03-27T11:23:18.988Z,56.75
2023-03-27T11:25:36.023Z,56.93
2023-03-27T11:27:53.107Z,58.72
2023-03-27T11:30:11.442Z,60.74
2023-03-27T11:32:28.775Z,62.49
2023-03-27T11:34:45.817Z,64.74
2023-03-27T11:37:02.736Z,65.07
2023-03-27T11:39:20.033Z,65.76
2023-03-27T11:41:37.055Z,67.48
2023-03-27T11:43:53.966Z,66.65
2023-03-27T11:46:11.286Z,65.57
2023-03-27T11:48:28.311Z,61.38
2023-03-27T11:50:45.342Z,62.64
2023-03-27T11:53:02.412Z,59.68
2023-03-27T11:55:19.683Z,60.11
2023-03-27T11:57:36.950Z,58.03
2023-03-27T11:59:53.841Z,56.20
2023-03-27T12:02:10.852Z,55.32
2023-03-27T12:04:27.763Z,53.32
2023-03-27T12:06:44.784Z,55.10
2023-03-27T12:09:01.774Z,52.04
2023-03-27T12:11:18.821Z,51.60
2023-03-27T12:13:41.939Z,48.93
2023-03-27T12:15:59.891Z,46.85
2023-03-27T12:18:17.877Z,47.93
2023-03-27T12:20:35.161Z,49.45
2023-03-27T12:22:52.497Z,47.26
2023-03-27T12:25:09.574Z,48.53
2023-03-27T12:27:26.844Z,46.91
2023-03-27T12:29:43.877Z,48.76
2023-03-27T12:32:01.124Z,49.41
2023-03-27T12:34:18.443Z,52.20
2023-03-27T12:36:35.711Z,49.75
2023-03-27T12:38:53.014Z,49.78
2023-03-27T12:41:09.946Z,52.54
2023-03-27T12:43:27.296Z,49.70
2023-03-27T12:45:53.257Z,51.80
2023-03-27T12:48:11.602Z,50.02
2023-03-27T12:50:28.828Z,51.28
2023-03-27T12:52:45.750Z,51.66
2023-03-27T12:55:02.754Z,50.54
2023-03-27T12:57:21.206Z,53.56
2023-03-27T12:59:38.383Z,52.75
2023-03-27T13:01:55.470Z,51.59
2023-03-27T13:04:12.522Z,52.00
2023-03-27T13:06:29.482Z,53.89
2023-03-27T13:08:47.755Z,53.08
2023-03-27T13:11:04.824Z,53.06
2023-03-27T13:13:21.822Z,54.92
2023-03-27T13:15:38.811Z,51.27
2023-03-27T13:17:56.881Z,52.09
2023-03-27T13:20:14.236Z,52.25
2023-03-27T13:22:33.248Z,52.13
2023-03-27T13:24:54.102Z,49.68
2023-03-27T13:27:11.161Z,50.48
2023-03-27T13:29:28.263Z,48.00
2023-03-27T13:31:45.624Z,47.90
2023-03-27T13:34:02.688Z,50.35
2023-03-27T13:36:19.899Z,48.25
2023-03-27T13:38:37.297Z,47.35
2023-03-27T13:40:54.445Z,47.02
2023-03-27T13:43:11.513Z,46.33
2023-03-27T13:45:28.537Z,43.90
2023-03-27T13:47:45.714Z,43.98
2023-03-27T13:50:06.153Z,42.32
2023-03-27T13:52:23.210Z,41.37
2023-03-27T13:54:40.185Z,42.78
2023-03-27T13:56:57.238Z,42.00
2023-03-27T13:59:14.548Z,42.56
2023-03-27T14:01:31.661Z,40.41
2023-03-27T14:03:49.141Z,40.49
2023-03-27T14:06:06.618Z,41.80
2023-03-27T14:08:23.909Z,42.07
2023-03-27T14:10:41.984Z,38.90
2023-03-27T14:12:59.272Z,39.43
2023-03-27T14:15:17.542Z,38.84
2023-03-27T14:17:34.565Z,40.34
2023-03-27T14:19:51.648Z,40.42
2023-03-27T14:22:08.612Z,38.59
2023-03-27T14:24:25.692Z,39.04
2023-03-27T14:26:42.758Z,39.85
2023-03-27T14:28:59.681Z,39.92
2023-03-27T14:31:16.973Z,41.20
2023-03-27T14:33:34.943Z,42.10
2023-03-27T14:35:52.987Z,42.27
2023-03-27T14:38:11.229Z,43.03
2023-03-27T14:40:28.121Z,42.63
2023-03-27T14:42:45.405Z,43.37
2023-03-27T14:45:02.688Z,43.41
2023-03-27T14:47:19.612Z,43.22
2023-03-27T14:49:36.797Z,44.50
2023-03-27T14:51:53.929Z,45.04
2023-03-27T14:54:10.937Z,44.46
2023-03-27T14:56:28.001Z,43.91
2023-03-27T14:58:45.105Z,44.97
2023-03-27T15:01:02.456Z,44.07
2023-03-27T15:03:19.389Z,45.49
2023-03-27T15:05:36.424Z,46.79
2023-03-27T15:07:53.419Z,47.14
2023-03-27T15:10:10.520Z,48.88
2023-03-27T15:12:27.624Z,49.26
2023-03-27T15:14:45.867Z,48.32
2023-03-27T15:17:03.042Z,48.02
2023-03-27T15:19:20.198Z,46.37
2023-03-27T15:21:37.158Z,47.66
2023-03-27T15:23:55.527Z,46.01
2023-03-27T15:26:12.529Z,44.77
2023-03-27T15:28:30.850Z,45.63
2023-03-27T15:30:48.241Z,47.63
2023-03-27T15:33:05.610Z,45.37
2023-03-27T15:35:23.737Z,47.14
2023-03-27T15:37:40.863Z,46.91
2023-03-27T15:39:58.118Z,48.21
2023-03-27T15:42:15.472Z,45.11
2023-03-27T15:44:32.756Z,45.96
2023-03-27T15:46:50.161Z,44.35
2023-03-27T15:49:07.201Z,45.39
2023-03-27T15:51:24.518Z,44.83
2023-03-27T15:53:41.956Z,45.47
2023-03-27T15:55:59.462Z,46.32
2023-03-27T15:58:16.722Z,46.34
2023-03-27T16:00:34.045Z,45.40
2023-03-27T16:02:52.132Z,45.57
2023-03-27T16:05:09.223Z,45.57
2023-03-27T16:07:26.508Z,46.34
2023-03-27T16:09:43.561Z,45.23
2023-03-27T16:12:01.919Z,44.74
2023-03-27T16:14:19.010Z,45.76
2023-03-27T16:16:36.167Z,46.48
2023-03-27T16:18:53.521Z,45.86
2023-03-27T16:21:11.523Z,45.59
2023-03-27T16:23:28.562Z,46.04
2023-03-27T16:25:45.483Z,45.66
2023-03-27T16:28:02.495Z,47.69
2023-03-27T16:30:19.753Z,47.84
2023-03-27T16:32:37.138Z,46.25
2023-03-27T16:34:54.083Z,46.78
2023-03-27T16:37:11.072Z,47.56
2023-03-27T16:39:28.913Z,47.56
2023-03-27T16:41:46.051Z,48.21
2023-03-27T16:44:02.990Z,50.33
2023-03-27T16:46:20.067Z,51.22
2023-03-27T16:48:38.381Z,51.09
2023-03-27T16:50:56.712Z,51.46
2023-03-27T16:53:13.708Z,52.66
2023-03-27T16:55:30.589Z,53.02
2023-03-27T16:57:47.891Z,51.57
2023-03-27T17:00:04.838Z,51.52
2023-03-27T17:02:21.830Z,54.07
2023-03-27T17:04:38.955Z,55.08
2023-03-27T17:06:56.308Z,54.99
2023-03-27T17:09:15.398Z,56.74
2023-03-27T17:11:32.704Z,56.82
2023-03-27T17:13:49.779Z,56.20
2023-03-27T17:16:08.078Z,56.01
2023-03-27T17:18:25.356Z,55.50
2023-03-27T17:20:42.625Z,56.02
2023-03-27T17:22:59.671Z,55.08
2023-03-27T17:25:17.137Z,54.86
2023-03-27T17:27:35.494Z,54.18
2023-03-27T17:29:52.592Z,52.34
2023-03-27T17:32:09.798Z,52.84
2023-03-27T17:34:27.173Z,53.48
2023-03-27T17:36:52.357Z,53.92
2023-03-27T17:39:11.643Z,53.17
2023-03-27T17:41:28.870Z,53.52
2023-03-27T17:43:46.159Z,53.43
2023-03-27T17:46:04.009Z,54.48
2023-03-27T17:48:21.253Z,54.48
2023-03-27T17:50:38.320Z,54.99
2023-03-27T17:52:55.654Z,53.70
2023-03-27T17:55:13.748Z,54.64
2023-03-27T17:57:30.784Z,55.59
2023-03-27T17:59:48.902Z,55.02
2023-03-27T18:02:06.069Z,55.71
2023-03-27T18:04:23.375Z,55.30
2023-03-27T18:06:40.483Z,56.23
2023-03-27T18:08:57.768Z,56.70
2023-03-27T18:11:14.697Z,57.61
2023-03-27T18:13:31.937Z,58.95
2023-03-27T18:15:49.285Z,58.67
2023-03-27T18:18:06.669Z,58.57
2023-03-27T18:20:24.729Z,60.32
2023-03-27T18:22:42.357Z,60.45
2023-03-27T18:24:59.679Z,61.02
2023-03-27T18:27:16.630Z,61.42
2023-03-27T18:29:33.671Z,61.74
2023-03-27T18:31:51.571Z,62.60
2023-03-27T18:34:09.803Z,62.33
2023-03-27T18:36:27.126Z,62.53
2023-03-27T18:38:44.242Z,62.79
2023-03-27T18:41:01.613Z,63.94
2023-03-27T18:43:18.646Z,63.09
2023-03-27T18:45:35.635Z,63.22
2023-03-27T18:47:52.822Z,62.99
2023-03-27T18:50:09.847Z,64.16
2023-03-27T18:52:27.121Z,64.27
2023-03-27T18:54:44.082Z,64.45
2023-03-27T18:57:02.464Z,65.74
2023-03-27T18:59:19.727Z,66.04
2023-03-27T19:01:37.176Z,65.80
2023-03-27T19:03:54.266Z,67.26
2023-03-27T19:06:11.306Z,66.59
2023-03-27T19:08:29.549Z,66.15
2023-03-27T19:10:46.605Z,66.62
2023-03-27T19:13:03.665Z,67.49
2023-03-27T19:15:20.900Z,67.60
2023-03-27T19:17:37.933Z,67.64
2023-03-27T19:19:55.244Z,68.14
2023-03-27T19:22:12.502Z,68.51
2023-03-27T19:24:29.730Z,68.81
2023-03-27T19:26:47.009Z,69.83
2023-03-27T19:29:03.911Z,69.35
2023-03-27T19:31:22.013Z,70.60
2023-03-27T19:33:39.083Z,70.49
2023-03-27T19:35:56.149Z,70.40
2023-03-27T19:38:13.192Z,70.05
2023-03-27T19:40:30.467Z,70.51
2023-03-27T19:42:47.663Z,69.95
2023-03-27T19:45:04.856Z,70.06
2023-03-27T19:47:22.803Z,69.33
2023-03-27T19:49:40.108Z,70.74
2023-03-27T19:51:58.173Z,70.05
2023-03-27T19:54:15.424Z,70.32
2023-03-27T19:56:32.808Z,71.28
2023-03-27T19:58:49.866Z,69.96
2023-03-27T20:01:07.139Z,70.59
2023-03-27T20:03:25.385Z,71.42
2023-03-27T20:05:42.460Z,71.59
2023-03-27T20:07:59.448Z,71.70
2023-03-27T20:10:16.445Z,72.44
2023-03-27T20:12:33.759Z,71.02
2023-03-27T20:15:07.035Z,71.61
2023-03-27T20:17:28.650Z,71.64
2023-03-27T20:19:45.785Z,72.29
2023-03-27T20:22:03.028Z,73.52
2023-03-27T20:24:20.048Z,72.89
2023-03-27T20:26:38.052Z,73.17
2023-03-27T20:28:55.302Z,73.70
2023-03-27T20:31:12.308Z,73.98
2023-03-27T20:33:29.377Z,74.47
2023-03-27T20:35:46.302Z,75.15
2023-03-27T20:38:03.569Z,75.21
2023-03-27T20:40:21.848Z,74.28
2023-03-27T20:42:39.626Z,74.99
2023-03-27T20:44:56.690Z,74.05
2023-03-27T20:47:13.982Z,75.19
2023-03-27T20:49:40.622Z,75.09
2023-03-27T20:51:58.528Z,74.95
2023-03-27T20:54:16.111Z,75.64
2023-03-27T20:56:33.137Z,74.49
2023-03-27T20:58:50.436Z,75.33
2023-03-27T21:01:07.522Z,75.11
2023-03-27T21:03:24.821Z,75.24
2023-03-27T21:05:42.121Z,74.76
2023-03-27T21:08:00.194Z,75.56
2023-03-27T21:10:17.196Z,74.91
2023-03-27T21:12:34.122Z,75.32
2023-03-27T21:14:51.387Z,76.06
2023-03-27T21:17:08.688Z,76.51
2023-03-27T21:19:25.651Z,77.02
2023-03-27T21:21:43.566Z,76.36
2023-03-27T21:24:00.900Z,76.86
2023-03-27T21:26:17.842Z,76.73
2023-03-27T21:28:34.896Z,77.00
2023-03-27T21:30:51.872Z,77.16
2023-03-27T21:33:08.968Z,76.90
2023-03-27T21:35:26.087Z,77.23
2023-03-27T21:37:44.119Z,77.40
2023-03-27T21:40:01.109Z,77.10
2023-03-27T21:42:18.003Z,77.10
2023-03-27T21:44:35.501Z,77.18
2023-03-27T21:46:52.532Z,77.53
2023-03-27T21:49:09.866Z,77.55
2023-03-27T21:51:27.117Z,77.60
2023-03-27T21:53:45.184Z,77.92
2023-03-27T21:56:02.645Z,78.14
2023-03-27T21:58:20.010Z,77.87
2023-03-27T22:00:37.293Z,78.08
2023-03-27T22:02:55.752Z,78.29
2023-03-27T22:05:13.199Z,79.27
2023-03-27T22:07:31.144Z,80.11
2023-03-27T22:09:48.450Z,80.33
2023-03-27T22:12:06.837Z,79.98
2023-03-27T22:14:23.868Z,79.90
2023-03-27T22:16:41.178Z,79.26
2023-03-27T22:18:58.345Z,79.69
2023-03-27T22:21:15.378Z,79.53
2023-03-27T22:23:32.633Z,80.03
2023-03-27T22:25:50.575Z,80.49
2023-03-27T22:28:07.680Z,80.65
2023-03-27T22:30:24.601Z,80.79
2023-03-27T22:32:41.743Z,80.78
2023-03-27T22:34:59.002Z,80.75
2023-03-27T22:37:16.991Z,81.00
2023-03-27T22:39:34.314Z,80.62
2023-03-27T22:41:52.558Z,80.15
2023-03-27T22:44:09.943Z,80.41
2023-03-27T22:46:27.107Z,80.42
2023-03-27T22:48:44.245Z,80.64
2023-03-27T22:51:01.317Z,80.68
2023-03-27T22:53:18.312Z,80.82
2023-03-27T22:55:35.260Z,80.51
2023-03-27T22:57:52.380Z,80.71
2023-03-27T23:00:09.640Z,79.83
2023-03-27T23:02:26.786Z,81.24
2023-03-27T23:04:43.797Z,81.33
2023-03-27T23:07:00.850Z,81.85
2023-03-27T23:09:19.198Z,81.86
2023-03-27T23:11:36.439Z,81.33
2023-03-27T23:13:53.435Z,82.29
2023-03-27T23:16:10.364Z,82.00
2023-03-27T23:18:27.692Z,82.06
2023-03-27T23:20:44.602Z,82.00
2023-03-27T23:23:01.645Z,81.66
2023-03-27T23:25:19.539Z,82.00
2023-03-27T23:27:36.523Z,81.87
2023-03-27T23:29:53.852Z,81.73
2023-03-27T23:32:10.862Z,81.70
2023-03-27T23:34:27.926Z,81.93
2023-03-27T23:36:44.980Z,82.13
2023-03-27T23:39:01.919Z,82.15
2023-03-27T23:41:19.228Z,82.68
2023-03-27T23:43:36.551Z,82.62
2023-03-27T23:45:54.644Z,83.12
2023-03-27T23:48:11.918Z,82.83
2023-03-27T23:50:29.820Z,82.74
2023-03-27T23:52:48.725Z,82.91
2023-03-27T23:55:05.765Z,82.69
2023-03-27T23:57:22.833Z,83.41
2023-03-27T23:59:40.205Z,82.63
